Aérodrome :
LOGIN :

S'inscrire | Disclaimer

   EN    FR    IT 

 










Légende :    VFR   VFR Marginal   IFR   IFR Intensif   IFR Très Intensif
Visi : 
Plafond : 
>= 8 km
>= 3000ft
5 à 8 km
1000 à 3000 ft
1500m à 5 km
500 à 1000 ft
800 à 1500m
200 à 500 ft
< 800m
< 200 ft
Symboles :   Orages  Brouillard  Fortes neiges  Fortes précipitations  Vent > 20 kt
SIGMETs :   Divers  Orages  Givrage  Turbulence  Onde Orograph.  Cendres Volcan.







- Altitude de l'aérodrome : 1766 ft


ETHL - Laupheim AB

DERNIER METAR :
  • 190920Z 22008KT 9999 FEW007 SCT020 BKN160 18/16 Q1018 BLU BLU TEMPO WHT

METARs EXPIRÉS :
  • 190820Z 21005KT 9999 -RA FEW009 SCT037 BKN090 18/16 Q1018 BLU BLU TEMPO WHT
  • 190720Z 24004KT 9999 FEW010 SCT020 BKN110 17/16 Q1018 BLU BLU TEMPO WHT

TAF TAF ETHL
Valide du 19 à 08h jusqu'au 19 à 17h UTC


190720Z 1908/1917 24005KT 9999 NSW FEW010 SCT020 BKN120
TEMPO 1908/1911 23012KT 7000 -SHRA FEW006 BKN020TCU
Pas de NOTAMs connus pour ce terrain.



MET'MAP, la Météo Aéronautique d'un coup d'oeil ! - Copyright ORBIFLY Décembre 2007 - Disclaimer

ORBIFLY MET'MAP TEAM :

Programmation & Développement : Alexandra Zaïnal
Conception & Développement : Baudouin d'Aumeries
Co-Programmation & Développement : Marc-Olivier Méhu
Soutien technique & logistique : Manuel Goepfert

Contact : metmap@orbifly.com




SOURCES & CREDITS :

   NOAA